Terminal Aerodrome Forecast
Issued by NWS Cleveland, OH

Home | Current Version | Previous Version | Text Only | Print | Product List | Glossary On
Versions: 1 2 3 4 5 6 7 8 9 10 11 12 13 14 15 16 17
000
FTUS41 KCLE 012000 AAA
TAFMFD
TAF AMD
KMFD 012023Z 0120/0218 12010KT 1 1/2SM -SN BR OVC005
     FM012100 13012KT 1/2SM SN FZFG OVC005
      TEMPO 0121/0201 1SM -SN BKN004
     FM020200 14010G20KT 3/4SM -SN BLSN OVC004
     FM021500 32015G25KT 2SM BLSN OVC008=

USA.gov is the U.S. government's official web portal to all federal, state and local government web resources and services.